createdAt,value
2019-02-19T00:00:05.499Z,9.36
2019-02-19T00:01:05.162Z,9.29
2019-02-19T00:02:05.140Z,9.27
2019-02-19T00:03:05.175Z,9.27
2019-02-19T00:04:05.166Z,9.19
2019-02-19T00:05:05.181Z,9.12
2019-02-19T00:06:05.046Z,9.15
2019-02-19T00:07:05.336Z,9.19
2019-02-19T00:08:05.014Z,9.16
2019-02-19T00:09:05.580Z,9.22
2019-02-19T00:10:05.227Z,9.14
2019-02-19T00:11:04.938Z,9.12
2019-02-19T00:12:04.918Z,9.09
2019-02-19T00:13:04.893Z,9.12
2019-02-19T00:14:05.217Z,9.18
2019-02-19T00:15:08.313Z,9.16
2019-02-19T00:16:04.821Z,9.08
2019-02-19T00:17:04.799Z,9.09
2019-02-19T00:18:04.775Z,9.06
2019-02-19T00:19:04.758Z,9.08
2019-02-19T00:20:04.747Z,9.03
2019-02-19T00:21:05.008Z,9.04
2019-02-19T00:22:04.688Z,9.06
2019-02-19T00:23:06.185Z,9.16
2019-02-19T00:24:04.643Z,9.04
2019-02-19T00:25:04.662Z,9.04
2019-02-19T00:26:04.608Z,8.98
2019-02-19T00:27:04.580Z,8.86
2019-02-19T00:28:04.850Z,8.90
2019-02-19T00:29:05.032Z,8.88
2019-02-19T00:30:04.547Z,8.85
2019-02-19T00:31:04.487Z,8.81
2019-02-19T00:32:04.460Z,8.95
2019-02-19T00:33:04.448Z,8.89
2019-02-19T00:34:04.430Z,8.95
2019-02-19T00:35:04.903Z,8.88
2019-02-19T00:36:04.954Z,8.83
2019-02-19T00:37:04.344Z,8.81
2019-02-19T00:39:04.300Z,8.80
2019-02-19T00:40:04.293Z,8.80
2019-02-19T00:41:04.377Z,8.83
2019-02-19T00:42:04.626Z,8.89
2019-02-19T00:43:04.212Z,8.88
2019-02-19T00:44:04.199Z,8.81
2019-02-19T00:45:04.176Z,8.81
2019-02-19T00:46:04.146Z,8.75
2019-02-19T00:47:04.140Z,8.78
2019-02-19T00:48:04.669Z,8.75
2019-02-19T00:49:04.190Z,8.78
2019-02-19T00:50:04.051Z,8.80
2019-02-19T00:51:04.255Z,8.74
2019-02-19T00:52:04.144Z,8.72
2019-02-19T00:53:03.993Z,8.68
2019-02-19T00:54:04.269Z,8.74
2019-02-19T00:55:04.511Z,8.72
2019-02-19T00:56:03.921Z,8.78
2019-02-19T00:57:03.932Z,8.67
2019-02-19T00:58:03.872Z,8.71
2019-02-19T00:59:03.968Z,8.63
2019-02-19T01:00:04.386Z,8.53
2019-02-19T01:01:04.039Z,8.53
2019-02-19T01:03:03.791Z,8.49
2019-02-19T01:04:03.842Z,8.49
2019-02-19T01:05:03.713Z,8.53
2019-02-19T01:07:04.092Z,8.35
2019-02-19T01:08:03.658Z,8.37
2019-02-19T01:09:04.532Z,8.35
2019-02-19T01:10:04.019Z,8.26
2019-02-19T01:11:03.712Z,8.31
2019-02-19T01:12:03.988Z,8.24
2019-02-19T01:13:03.849Z,8.23
2019-02-19T01:14:03.784Z,8.19
2019-02-19T01:16:03.559Z,8.21
2019-02-19T01:17:03.470Z,8.21
2019-02-19T01:18:04.635Z,8.13
2019-02-19T01:19:03.848Z,8.12
2019-02-19T01:20:03.462Z,8.02
2019-02-19T01:21:03.489Z,7.96
2019-02-19T01:22:03.475Z,7.88
2019-02-19T01:23:03.365Z,7.84
2019-02-19T01:24:03.283Z,7.88
2019-02-19T01:25:03.576Z,7.84
2019-02-19T01:26:03.307Z,7.84
2019-02-19T01:27:03.301Z,7.77
2019-02-19T01:28:03.198Z,7.71
2019-02-19T01:29:03.410Z,7.60
2019-02-19T01:30:03.299Z,7.50
2019-02-19T01:31:03.296Z,7.61
2019-02-19T01:32:03.446Z,7.47
2019-02-19T01:33:03.501Z,7.55
2019-02-19T01:34:03.064Z,7.49
2019-02-19T01:35:03.030Z,7.55
2019-02-19T01:36:03.143Z,7.52
2019-02-19T01:37:02.985Z,7.54
2019-02-19T01:38:02.969Z,7.49
2019-02-19T01:39:03.252Z,7.54
2019-02-19T01:40:03.530Z,7.43
2019-02-19T01:41:03.009Z,7.43
2019-02-19T01:42:02.870Z,7.43
2019-02-19T01:43:02.874Z,7.40
2019-02-19T01:44:02.950Z,7.36
2019-02-19T01:45:03.317Z,7.37
2019-02-19T01:46:03.086Z,7.29
2019-02-19T01:47:02.755Z,7.33
2019-02-19T01:48:02.734Z,7.28
2019-02-19T01:49:02.711Z,7.26
2019-02-19T01:50:02.680Z,7.33
2019-02-19T01:51:02.654Z,7.29
2019-02-19T01:52:02.629Z,7.19
2019-02-19T01:53:02.914Z,7.18
2019-02-19T01:54:02.587Z,7.18
2019-02-19T01:55:02.585Z,7.15
2019-02-19T01:56:02.659Z,7.16
2019-02-19T01:57:02.593Z,7.16
2019-02-19T01:58:02.543Z,7.16
2019-02-19T01:59:02.587Z,7.16
2019-02-19T02:00:03.023Z,7.21
2019-02-19T02:01:02.534Z,7.25
2019-02-19T02:02:02.566Z,7.25
2019-02-19T02:03:02.879Z,7.28
2019-02-19T02:04:02.421Z,7.28
2019-02-19T02:05:02.481Z,7.19
2019-02-19T02:06:02.404Z,7.34
2019-02-19T02:07:04.428Z,7.22
2019-02-19T02:08:02.410Z,7.16
2019-02-19T02:09:02.353Z,7.33
2019-02-19T02:10:02.355Z,7.31
2019-02-19T02:11:02.648Z,7.39
2019-02-19T02:12:02.180Z,7.36
2019-02-19T02:13:02.443Z,7.39
2019-02-19T02:14:02.118Z,7.39
2019-02-19T02:15:02.108Z,7.42
2019-02-19T02:16:02.153Z,7.55
2019-02-19T02:17:02.126Z,7.52
2019-02-19T02:18:02.061Z,7.61
2019-02-19T02:19:02.431Z,7.52
2019-02-19T02:20:01.968Z,7.54
2019-02-19T02:21:01.942Z,7.55
2019-02-19T02:22:01.926Z,7.58
2019-02-19T02:23:01.895Z,7.60
2019-02-19T02:24:01.878Z,7.55
2019-02-19T02:25:02.185Z,7.50
2019-02-19T02:26:01.823Z,7.61
2019-02-19T02:27:01.804Z,7.64
2019-02-19T02:29:01.754Z,7.61
2019-02-19T02:30:01.871Z,7.58
2019-02-19T02:31:02.036Z,7.55
2019-02-19T02:32:01.707Z,7.52
2019-02-19T02:33:01.673Z,7.64
2019-02-19T02:34:01.640Z,7.54
2019-02-19T02:35:01.615Z,7.58
2019-02-19T02:36:01.599Z,7.55
2019-02-19T02:38:01.552Z,7.49
2019-02-19T02:39:01.517Z,7.50
2019-02-19T02:40:01.511Z,7.64
2019-02-19T02:41:01.497Z,7.55
2019-02-19T02:42:01.465Z,7.47
2019-02-19T02:43:01.728Z,7.52
2019-02-19T02:45:02.897Z,7.52
2019-02-19T02:46:01.359Z,7.61
2019-02-19T02:47:01.603Z,7.58
2019-02-19T02:48:01.310Z,7.57
2019-02-19T02:49:01.603Z,7.49
2019-02-19T02:50:01.294Z,7.54
2019-02-19T02:51:01.267Z,7.46
2019-02-19T02:52:01.214Z,7.37
2019-02-19T02:53:01.241Z,7.39
2019-02-19T02:55:01.154Z,7.39
2019-02-19T02:56:01.440Z,7.36
2019-02-19T02:57:01.092Z,7.40
2019-02-19T02:58:01.075Z,7.40
2019-02-19T02:59:01.053Z,7.40
2019-02-19T03:00:01.039Z,7.50
2019-02-19T03:01:01.011Z,7.49
2019-02-19T03:02:00.986Z,7.54
2019-02-19T03:03:01.221Z,7.43
2019-02-19T03:04:00.939Z,7.40
2019-02-19T03:05:00.975Z,7.46
2019-02-19T03:06:00.985Z,7.47
2019-02-19T03:07:00.978Z,7.50
2019-02-19T03:08:01.082Z,7.47
2019-02-19T03:09:00.936Z,7.36
2019-02-19T03:10:01.162Z,7.42
2019-02-19T03:11:00.910Z,7.37
2019-02-19T03:12:00.841Z,7.37
2019-02-19T03:13:00.816Z,7.33
2019-02-19T03:15:00.865Z,7.40
2019-02-19T03:16:02.672Z,7.34
2019-02-19T03:17:00.989Z,7.34
2019-02-19T03:18:00.615Z,7.46
2019-02-19T03:19:00.588Z,7.36
2019-02-19T03:20:00.565Z,7.40
2019-02-19T03:21:00.540Z,7.49
2019-02-19T03:22:00.503Z,7.54
2019-02-19T03:23:00.510Z,7.54
2019-02-19T03:24:00.770Z,7.52
2019-02-19T03:25:00.437Z,7.50
2019-02-19T03:26:00.413Z,7.43
2019-02-19T03:27:00.398Z,7.49
2019-02-19T03:28:00.388Z,7.37
2019-02-19T03:29:00.353Z,7.50
2019-02-19T03:30:00.338Z,7.54
2019-02-19T03:31:00.573Z,7.36
2019-02-19T03:32:00.276Z,7.50
2019-02-19T03:33:00.250Z,7.50
2019-02-19T03:34:00.335Z,7.50
2019-02-19T03:35:00.466Z,7.54
2019-02-19T03:36:00.190Z,7.64
2019-02-19T03:37:00.469Z,7.54
2019-02-19T03:38:00.233Z,7.58
2019-02-19T03:39:00.115Z,7.54
2019-02-19T03:40:00.182Z,7.49
2019-02-19T03:41:00.074Z,7.55
2019-02-19T03:42:00.037Z,7.64
2019-02-19T03:43:00.264Z,7.52
2019-02-19T03:44:00.075Z,7.69
2019-02-19T03:44:59.995Z,7.69
2019-02-19T03:45:59.949Z,7.68
2019-02-19T03:46:59.968Z,7.77
2019-02-19T03:47:59.972Z,7.73
2019-02-19T03:49:00.169Z,7.81
2019-02-19T03:49:59.845Z,7.80
2019-02-19T03:50:59.820Z,7.83
2019-02-19T03:51:59.798Z,7.83
2019-02-19T03:52:59.799Z,7.84
2019-02-19T03:53:59.774Z,7.84
2019-02-19T03:55:00.052Z,7.98
2019-02-19T03:55:59.721Z,8.01
2019-02-19T03:56:59.680Z,8.02
2019-02-19T03:57:59.656Z,8.10
2019-02-19T03:58:59.637Z,8.14
2019-02-19T03:59:59.611Z,8.19
2019-02-19T04:00:59.891Z,8.19
2019-02-19T04:01:59.865Z,8.20
2019-02-19T04:02:59.551Z,8.26
2019-02-19T04:03:59.532Z,8.20
2019-02-19T04:04:59.496Z,8.35
2019-02-19T04:05:59.480Z,8.20
2019-02-19T04:06:59.762Z,8.24
2019-02-19T04:07:59.427Z,8.26
2019-02-19T04:08:59.414Z,8.35
2019-02-19T04:09:59.386Z,8.31
2019-02-19T04:10:59.373Z,8.39
2019-02-19T04:11:59.339Z,8.34
2019-02-19T04:12:59.649Z,8.39
2019-02-19T04:14:59.266Z,8.39
2019-02-19T04:15:59.239Z,8.39
2019-02-19T04:16:59.451Z,8.39
2019-02-19T04:17:59.193Z,8.32
2019-02-19T04:18:59.177Z,8.42
2019-02-19T04:19:59.448Z,8.41
2019-02-19T04:20:59.118Z,8.37
2019-02-19T04:21:59.096Z,8.41
2019-02-19T04:22:59.071Z,8.39
2019-02-19T04:23:59.056Z,8.46
2019-02-19T04:24:59.030Z,8.41
2019-02-19T04:25:59.013Z,8.42
2019-02-19T04:26:59.284Z,8.41
2019-02-19T04:27:58.963Z,8.39
2019-02-19T04:28:58.948Z,8.41
2019-02-19T04:29:58.914Z,8.35
2019-02-19T04:30:58.898Z,8.39
2019-02-19T04:31:58.878Z,8.41
2019-02-19T04:32:58.850Z,8.37
2019-02-19T04:33:59.125Z,8.44
2019-02-19T04:34:58.979Z,8.50
2019-02-19T04:35:58.907Z,8.55
2019-02-19T04:36:58.856Z,8.52
2019-02-19T04:37:58.739Z,8.49
2019-02-19T04:38:58.814Z,8.47
2019-02-19T04:39:58.688Z,8.53
2019-02-19T04:40:58.908Z,8.52
2019-02-19T04:41:58.654Z,8.60
2019-02-19T04:42:58.647Z,8.56
2019-02-19T04:43:58.630Z,8.55
2019-02-19T04:44:58.597Z,8.50
2019-02-19T04:45:58.623Z,8.59
2019-02-19T04:46:58.528Z,8.56
2019-02-19T04:47:58.815Z,8.63
2019-02-19T04:48:58.497Z,8.68
2019-02-19T04:49:58.455Z,8.67
2019-02-19T04:50:58.673Z,8.62
2019-02-19T04:51:59.117Z,8.65
2019-02-19T04:52:58.493Z,8.71
2019-02-19T04:53:58.367Z,8.65
2019-02-19T04:54:58.653Z,8.75
2019-02-19T04:55:58.559Z,8.71
2019-02-19T04:56:58.293Z,8.70
2019-02-19T04:57:58.385Z,8.71
2019-02-19T04:58:58.300Z,8.70
2019-02-19T04:59:58.232Z,8.71
2019-02-19T05:00:58.462Z,8.63
2019-02-19T05:01:59.696Z,8.74
2019-02-19T05:02:58.208Z,8.78
2019-02-19T05:03:58.139Z,8.88
2019-02-19T05:04:58.112Z,8.80
2019-02-19T05:05:58.103Z,8.78
2019-02-19T05:06:58.324Z,8.80
2019-02-19T05:07:58.037Z,8.75
2019-02-19T05:08:58.070Z,8.70
2019-02-19T05:09:58.090Z,8.71
2019-02-19T05:10:57.967Z,8.72
2019-02-19T05:11:57.952Z,8.77
2019-02-19T05:12:58.225Z,8.75
2019-02-19T05:13:57.898Z,8.80
2019-02-19T05:14:57.882Z,8.72
2019-02-19T05:15:57.858Z,8.70
2019-02-19T05:17:57.806Z,8.65
2019-02-19T05:18:58.086Z,8.67
2019-02-19T05:19:57.763Z,8.63
2019-02-19T05:20:57.759Z,8.70
2019-02-19T05:21:57.719Z,8.71
2019-02-19T05:22:57.695Z,8.74
2019-02-19T05:23:57.700Z,8.68
2019-02-19T05:24:57.972Z,8.77
2019-02-19T05:25:57.893Z,8.72
2019-02-19T05:26:57.901Z,8.68
2019-02-19T05:27:57.607Z,8.72
2019-02-19T05:28:58.264Z,8.78
2019-02-19T05:29:57.552Z,8.65
2019-02-19T05:30:57.899Z,8.71
2019-02-19T05:31:57.496Z,8.67
2019-02-19T05:32:57.466Z,8.75
2019-02-19T05:33:57.444Z,8.63
2019-02-19T05:34:57.460Z,8.68
2019-02-19T05:35:57.402Z,8.70
2019-02-19T05:36:57.628Z,8.62
2019-02-19T05:37:57.349Z,8.71
2019-02-19T05:38:57.339Z,8.65
2019-02-19T05:39:57.316Z,8.63
2019-02-19T05:40:57.290Z,8.67
2019-02-19T05:41:57.282Z,8.70
2019-02-19T05:42:57.690Z,8.60
2019-02-19T05:43:57.513Z,8.71
2019-02-19T05:44:57.404Z,8.78
2019-02-19T05:45:57.177Z,8.77
2019-02-19T05:46:57.153Z,8.74
2019-02-19T05:47:57.173Z,8.67
2019-02-19T05:48:57.102Z,8.77
2019-02-19T05:49:57.503Z,8.75
2019-02-19T05:50:57.060Z,8.74
2019-02-19T05:51:57.084Z,8.70
2019-02-19T05:52:57.360Z,8.77
2019-02-19T05:54:57.093Z,8.68
2019-02-19T05:55:57.278Z,8.72
2019-02-19T05:56:57.214Z,8.68
2019-02-19T05:58:01.433Z,8.68
2019-02-19T05:58:58.052Z,8.71
2019-02-19T05:59:58.493Z,8.67
2019-02-19T06:00:57.203Z,8.70
2019-02-19T06:01:58.435Z,8.68
2019-02-19T06:02:57.419Z,8.65
2019-02-19T06:03:56.903Z,8.62
2019-02-19T06:04:56.762Z,8.63
2019-02-19T06:05:56.761Z,8.52
2019-02-19T06:06:56.762Z,8.53
2019-02-19T06:07:56.674Z,8.53
2019-02-19T06:08:56.652Z,8.42
2019-02-19T06:09:56.889Z,8.37
2019-02-19T06:10:56.699Z,8.38
2019-02-19T06:11:56.599Z,8.41
2019-02-19T06:12:56.551Z,8.35
2019-02-19T06:13:56.533Z,8.37
2019-02-19T06:14:56.525Z,8.37
2019-02-19T06:15:56.491Z,8.29
2019-02-19T06:16:58.755Z,8.31
2019-02-19T06:18:56.432Z,8.24
2019-02-19T06:21:56.365Z,8.20
2019-02-19T06:22:56.896Z,8.16
2019-02-19T06:23:56.316Z,8.19
2019-02-19T06:24:56.299Z,8.16
2019-02-19T06:25:56.273Z,8.13
2019-02-19T06:26:56.250Z,8.05
2019-02-19T06:27:56.221Z,8.04
2019-02-19T06:28:57.994Z,8.02
2019-02-19T06:29:56.179Z,8.06
2019-02-19T06:30:56.180Z,8.09
2019-02-19T06:31:56.168Z,8.09
2019-02-19T06:32:57.168Z,7.99
2019-02-19T06:33:56.102Z,8.09
2019-02-19T06:34:56.367Z,8.05
2019-02-19T06:35:56.035Z,8.04
2019-02-19T06:36:56.974Z,7.99
2019-02-19T06:37:55.977Z,8.01
2019-02-19T06:38:55.950Z,8.04
2019-02-19T06:39:55.948Z,8.01
2019-02-19T06:40:56.019Z,8.01
2019-02-19T06:41:56.182Z,8.05
2019-02-19T06:42:55.864Z,7.96
2019-02-19T06:43:55.851Z,8.01
2019-02-19T06:44:55.815Z,8.01
2019-02-19T06:45:56.136Z,8.01
2019-02-19T06:46:55.774Z,7.94
2019-02-19T06:47:56.081Z,7.99
2019-02-19T06:48:55.723Z,8.02
2019-02-19T06:49:55.719Z,7.94
2019-02-19T06:50:55.670Z,7.94
2019-02-19T06:51:55.659Z,7.91
2019-02-19T06:52:55.716Z,7.92
2019-02-19T06:53:55.902Z,7.86
2019-02-19T06:54:55.578Z,7.88
2019-02-19T06:55:55.700Z,7.95
2019-02-19T06:56:55.532Z,7.96
2019-02-19T06:58:55.559Z,7.94
2019-02-19T06:59:56.164Z,7.99
2019-02-19T07:00:55.566Z,7.99
2019-02-19T07:01:55.421Z,7.99
2019-02-19T07:02:55.480Z,7.95
2019-02-19T07:03:55.385Z,7.86
2019-02-19T07:05:55.631Z,7.92
2019-02-19T07:06:55.520Z,7.94
2019-02-19T07:07:55.305Z,7.96
2019-02-19T07:08:55.296Z,8.01
2019-02-19T07:09:55.245Z,7.95
2019-02-19T07:10:55.228Z,8.05
2019-02-19T07:11:55.190Z,7.98
2019-02-19T07:12:55.936Z,7.98
2019-02-19T07:13:55.576Z,8.02
2019-02-19T07:14:55.135Z,7.98
2019-02-19T07:15:55.404Z,7.96
2019-02-19T07:16:55.380Z,7.99
2019-02-19T07:17:55.080Z,8.02
2019-02-19T07:18:55.550Z,8.01
2019-02-19T07:19:54.998Z,8.12
2019-02-19T07:20:55.455Z,8.02
2019-02-19T07:21:55.640Z,8.06
2019-02-19T07:22:55.093Z,8.14
2019-02-19T07:24:04.225Z,8.09
2019-02-19T07:24:55.546Z,8.14
2019-02-19T07:25:55.420Z,8.16
2019-02-19T07:26:55.120Z,8.14
2019-02-19T07:27:55.213Z,8.17
2019-02-19T07:28:54.792Z,8.14
2019-02-19T07:29:55.166Z,8.21
2019-02-19T07:30:55.456Z,8.20
2019-02-19T07:31:54.724Z,8.21
2019-02-19T07:32:54.756Z,8.20
2019-02-19T07:33:54.675Z,8.17
2019-02-19T07:34:54.674Z,8.14
2019-02-19T07:35:54.746Z,8.26
2019-02-19T07:36:54.616Z,8.20
2019-02-19T07:37:54.876Z,8.31
2019-02-19T07:38:54.586Z,8.19
2019-02-19T07:39:54.542Z,8.17
2019-02-19T07:40:54.545Z,8.31
2019-02-19T07:41:54.546Z,8.26
2019-02-19T07:42:54.522Z,8.26
2019-02-19T07:43:54.750Z,8.41
2019-02-19T07:44:54.599Z,8.37
2019-02-19T07:45:54.469Z,8.41
2019-02-19T07:46:54.408Z,8.29
2019-02-19T07:47:54.365Z,8.35
2019-02-19T07:48:54.340Z,8.41
2019-02-19T07:49:54.614Z,8.39
2019-02-19T07:50:54.311Z,8.41
2019-02-19T07:51:54.272Z,8.37
2019-02-19T07:52:54.294Z,8.35
2019-02-19T07:53:54.231Z,8.44
2019-02-19T07:54:54.197Z,8.44
2019-02-19T07:55:54.500Z,8.39
2019-02-19T07:56:54.183Z,8.38
2019-02-19T07:57:54.137Z,8.41
2019-02-19T07:58:54.111Z,8.39
2019-02-19T07:59:54.151Z,8.35
2019-02-19T08:00:54.081Z,8.41
2019-02-19T08:01:54.396Z,8.41
2019-02-19T08:02:54.080Z,8.39
2019-02-19T08:03:54.019Z,8.35
2019-02-19T08:04:53.990Z,8.41
2019-02-19T08:05:53.953Z,8.42
2019-02-19T08:06:53.967Z,8.41
2019-02-19T08:07:54.228Z,8.50
2019-02-19T08:08:53.883Z,8.44
2019-02-19T08:09:53.904Z,8.39
2019-02-19T08:10:53.850Z,8.39
2019-02-19T08:11:53.815Z,8.39
2019-02-19T08:12:53.794Z,8.41
2019-02-19T08:13:54.088Z,8.44
2019-02-19T08:14:53.759Z,8.38
2019-02-19T08:15:54.178Z,8.39
2019-02-19T08:16:53.703Z,8.35
2019-02-19T08:17:53.911Z,8.41
2019-02-19T08:18:53.724Z,8.42
2019-02-19T08:19:53.936Z,8.39
2019-02-19T08:20:53.632Z,8.49
2019-02-19T08:21:53.670Z,8.44
2019-02-19T08:22:53.575Z,8.39
2019-02-19T08:23:53.554Z,8.41
2019-02-19T08:24:53.525Z,8.52
2019-02-19T08:25:53.836Z,8.52
2019-02-19T08:26:53.482Z,8.49
2019-02-19T08:27:53.490Z,8.44
2019-02-19T08:28:53.455Z,8.50
2019-02-19T08:29:53.422Z,8.47
2019-02-19T08:30:53.392Z,8.39
2019-02-19T08:31:53.684Z,8.41
2019-02-19T08:32:53.347Z,8.57
2019-02-19T08:33:53.334Z,8.50
2019-02-19T08:34:53.362Z,8.50
2019-02-19T08:35:53.621Z,8.56
2019-02-19T08:36:53.260Z,8.56
2019-02-19T08:37:53.543Z,8.56
2019-02-19T08:38:53.209Z,8.55
2019-02-19T08:39:53.195Z,8.59
2019-02-19T08:40:53.174Z,8.55
2019-02-19T08:41:54.669Z,8.53
2019-02-19T08:42:53.234Z,8.56
2019-02-19T08:43:53.370Z,8.53
2019-02-19T08:44:53.077Z,8.55
2019-02-19T08:45:53.050Z,8.60
2019-02-19T08:46:53.040Z,8.53
2019-02-19T08:47:53.018Z,8.67
2019-02-19T08:48:52.983Z,8.55
2019-02-19T08:49:53.284Z,8.63
2019-02-19T08:50:52.940Z,8.53
2019-02-19T08:51:56.130Z,8.62
2019-02-19T08:52:52.927Z,8.59
2019-02-19T08:53:52.881Z,8.68
2019-02-19T08:54:52.858Z,8.72
2019-02-19T08:55:53.134Z,8.70
2019-02-19T08:56:52.853Z,8.72
2019-02-19T08:57:54.229Z,8.77
2019-02-19T08:58:52.761Z,8.78
2019-02-19T08:59:52.738Z,8.95
2019-02-19T09:00:52.721Z,8.86
2019-02-19T09:01:52.972Z,9.06
2019-02-19T09:02:52.677Z,9.18
2019-02-19T09:03:52.652Z,9.12
2019-02-19T09:04:52.639Z,9.03
2019-02-19T09:05:52.610Z,9.04
2019-02-19T09:06:52.589Z,8.95
2019-02-19T09:07:52.861Z,8.96
2019-02-19T09:08:52.564Z,8.95
2019-02-19T09:09:52.910Z,9.03
2019-02-19T09:10:52.601Z,8.92
2019-02-19T09:11:52.485Z,8.90
2019-02-19T09:12:52.453Z,8.95
2019-02-19T09:13:52.685Z,9.01
2019-02-19T09:14:52.415Z,9.09
2019-02-19T09:15:52.394Z,9.12
2019-02-19T09:16:52.462Z,9.09
2019-02-19T09:17:52.479Z,9.14
2019-02-19T09:18:52.485Z,9.14
2019-02-19T09:19:52.638Z,9.22
2019-02-19T09:20:52.491Z,9.09
2019-02-19T09:21:52.441Z,9.12
2019-02-19T09:23:52.284Z,9.12
2019-02-19T09:24:52.221Z,9.11
2019-02-19T09:25:52.437Z,9.14
2019-02-19T09:26:52.269Z,9.19
2019-02-19T09:27:52.167Z,9.30
2019-02-19T09:28:52.175Z,9.23
2019-02-19T09:29:52.089Z,9.29
2019-02-19T09:30:52.108Z,9.33
2019-02-19T09:31:52.461Z,9.29
2019-02-19T09:32:52.077Z,9.29
2019-02-19T09:33:52.135Z,9.22
2019-02-19T09:34:52.712Z,9.19
2019-02-19T09:35:51.964Z,9.26
2019-02-19T09:36:51.947Z,9.26
2019-02-19T09:37:52.223Z,9.14
2019-02-19T09:38:51.913Z,9.14
2019-02-19T09:39:51.899Z,9.23
2019-02-19T09:40:51.882Z,9.27
2019-02-19T09:41:51.866Z,9.27
2019-02-19T09:42:52.009Z,9.24
2019-02-19T09:43:52.122Z,9.23
2019-02-19T09:44:51.763Z,9.32
2019-02-19T09:45:51.768Z,9.27
2019-02-19T09:46:51.722Z,9.23
2019-02-19T09:48:00.763Z,9.32
2019-02-19T09:48:51.680Z,9.40
2019-02-19T09:49:52.257Z,9.55
2019-02-19T09:50:51.638Z,9.67
2019-02-19T09:51:51.664Z,9.65
2019-02-19T09:53:51.587Z,9.99
2019-02-19T09:54:51.563Z,9.85
2019-02-19T09:55:51.840Z,9.83
2019-02-19T09:56:51.573Z,9.67
2019-02-19T09:57:51.499Z,9.47
2019-02-19T09:58:51.481Z,9.51
2019-02-19T09:59:51.555Z,9.54
2019-02-19T10:00:51.439Z,9.67
2019-02-19T10:01:51.718Z,9.50
2019-02-19T10:02:51.706Z,9.70
2019-02-19T10:03:51.396Z,9.72
2019-02-19T10:04:51.364Z,9.55
2019-02-19T10:05:51.336Z,9.80
2019-02-19T10:06:51.335Z,9.96
2019-02-19T10:07:51.597Z,9.78
2019-02-19T10:08:51.292Z,9.94
2019-02-19T10:09:51.273Z,10.17
2019-02-19T10:11:51.206Z,9.80
2019-02-19T10:12:51.202Z,9.77
2019-02-19T10:13:51.471Z,9.65
2019-02-19T10:14:51.312Z,9.63
2019-02-19T10:15:51.176Z,9.72
2019-02-19T10:16:51.119Z,9.72
2019-02-19T10:17:51.127Z,9.67
2019-02-19T10:18:51.418Z,9.70
2019-02-19T10:20:51.921Z,9.77
2019-02-19T10:21:51.150Z,9.77
2019-02-19T10:22:51.147Z,9.87
2019-02-19T10:23:51.114Z,9.91
2019-02-19T10:24:52.413Z,9.91
2019-02-19T10:25:50.981Z,10.91
2019-02-19T10:27:51.192Z,10.61
2019-02-19T10:28:50.904Z,10.64
2019-02-19T10:29:50.897Z,10.43
2019-02-19T10:30:50.809Z,10.58
2019-02-19T10:31:51.872Z,11.11
2019-02-19T10:32:50.893Z,11.43
2019-02-19T10:33:51.049Z,12.18
2019-02-19T10:34:50.730Z,11.91
2019-02-19T10:35:50.720Z,11.59
2019-02-19T10:36:50.699Z,11.37
2019-02-19T10:37:51.808Z,11.97
2019-02-19T10:38:50.662Z,12.54
2019-02-19T10:39:50.894Z,11.64
2019-02-19T10:40:50.697Z,11.76
2019-02-19T10:41:50.595Z,11.28
2019-02-19T10:42:50.633Z,11.28
2019-02-19T10:44:51.360Z,11.45
2019-02-19T10:45:50.834Z,10.75
2019-02-19T10:46:50.526Z,10.36
2019-02-19T10:47:50.610Z,10.20
2019-02-19T10:48:50.499Z,10.30
2019-02-19T10:49:50.459Z,10.24
2019-02-19T10:50:50.593Z,10.24
2019-02-19T10:51:50.721Z,10.17
2019-02-19T10:52:51.721Z,10.80
2019-02-19T10:53:50.380Z,11.45
2019-02-19T10:54:51.216Z,11.19
2019-02-19T10:55:50.348Z,11.54
2019-02-19T10:57:50.570Z,12.17
2019-02-19T10:58:50.294Z,12.17
2019-02-19T10:59:50.282Z,12.29
2019-02-19T11:00:50.287Z,11.69
2019-02-19T11:01:50.237Z,11.54
2019-02-19T11:02:50.215Z,11.89
2019-02-19T11:03:50.603Z,12.21
2019-02-19T11:04:50.315Z,11.73
2019-02-19T11:05:50.195Z,11.76
2019-02-19T11:06:50.178Z,12.03
2019-02-19T11:07:50.175Z,12.46
2019-02-19T11:08:50.121Z,13.05
2019-02-19T11:09:50.370Z,13.21
2019-02-19T11:10:50.879Z,12.73
2019-02-19T11:11:50.135Z,12.25
2019-02-19T11:12:50.057Z,11.20
2019-02-19T11:13:50.026Z,11.36
2019-02-19T11:14:50.013Z,11.45
2019-02-19T11:15:50.289Z,11.58
2019-02-19T11:16:49.973Z,11.40
2019-02-19T11:17:49.972Z,11.34
2019-02-19T11:18:49.954Z,11.76
2019-02-19T11:19:49.927Z,11.91
2019-02-19T11:20:49.967Z,11.38
2019-02-19T11:21:50.198Z,11.34
2019-02-19T11:22:49.961Z,11.38
2019-02-19T11:23:49.944Z,11.59
2019-02-19T11:24:50.112Z,11.40
2019-02-19T11:25:49.949Z,11.11
2019-02-19T11:26:50.110Z,11.09
2019-02-19T11:27:50.140Z,10.72
2019-02-19T11:28:50.177Z,10.75
2019-02-19T11:30:49.737Z,11.04
2019-02-19T11:31:49.727Z,11.15
2019-02-19T11:33:49.926Z,10.78
2019-02-19T11:34:49.821Z,10.75
2019-02-19T11:35:49.645Z,10.65
2019-02-19T11:36:49.622Z,11.22
2019-02-19T11:37:49.633Z,10.97
2019-02-19T11:38:49.611Z,10.82
2019-02-19T11:39:49.873Z,10.73
2019-02-19T11:40:49.569Z,10.79
2019-02-19T11:41:49.534Z,10.82
2019-02-19T11:42:49.515Z,10.62
2019-02-19T11:43:49.502Z,10.75
2019-02-19T11:44:49.468Z,10.87
2019-02-19T11:45:49.774Z,10.78
2019-02-19T11:46:49.439Z,10.72
2019-02-19T11:47:49.420Z,10.80
2019-02-19T11:48:49.397Z,10.87
2019-02-19T11:49:49.392Z,10.73
2019-02-19T11:50:49.714Z,10.87
2019-02-19T11:51:49.659Z,10.93
2019-02-19T11:52:49.782Z,10.87
2019-02-19T11:53:49.305Z,10.72
2019-02-19T11:54:49.315Z,10.73
2019-02-19T11:55:49.309Z,10.95
2019-02-19T11:56:49.314Z,11.11
2019-02-19T11:57:49.530Z,11.00
2019-02-19T11:58:49.281Z,11.01
2019-02-19T11:59:49.208Z,10.93
2019-02-19T12:00:49.223Z,10.97
2019-02-19T12:01:49.485Z,10.97
2019-02-19T12:02:49.154Z,11.12
2019-02-19T12:03:49.452Z,11.18
2019-02-19T12:04:49.192Z,11.19
2019-02-19T12:05:49.132Z,11.13
2019-02-19T12:06:49.062Z,11.09
2019-02-19T12:07:49.102Z,11.37
2019-02-19T12:08:49.056Z,11.46
2019-02-19T12:09:49.307Z,11.40
2019-02-19T12:10:49.092Z,11.69
2019-02-19T12:11:48.977Z,11.45
2019-02-19T12:12:48.944Z,11.58
2019-02-19T12:13:48.939Z,11.40
2019-02-19T12:16:50.398Z,11.34
2019-02-19T12:17:48.872Z,11.13
2019-02-19T12:18:48.849Z,11.03
2019-02-19T12:20:48.797Z,11.16
2019-02-19T12:21:52.277Z,11.09
2019-02-19T12:24:51.440Z,11.15
2019-02-19T12:26:49.969Z,11.11
2019-02-19T12:27:48.833Z,11.15
2019-02-19T12:28:48.989Z,11.25
2019-02-19T12:29:48.720Z,11.18
2019-02-19T12:30:48.604Z,11.16
2019-02-19T12:31:48.592Z,11.11
2019-02-19T12:32:48.567Z,11.19
2019-02-19T12:33:48.570Z,11.28
2019-02-19T12:34:48.535Z,11.34
2019-02-19T12:35:48.822Z,11.31
2019-02-19T12:36:48.791Z,11.48
2019-02-19T12:37:48.501Z,11.48
2019-02-19T12:38:49.789Z,11.51
2019-02-19T12:39:48.614Z,11.46
2019-02-19T12:40:48.521Z,11.41
2019-02-19T12:41:48.402Z,11.34
2019-02-19T12:42:48.389Z,11.27
2019-02-19T12:43:48.419Z,11.18
2019-02-19T12:44:48.437Z,11.25
2019-02-19T12:45:48.322Z,11.28
2019-02-19T12:46:48.294Z,11.25
2019-02-19T12:47:48.749Z,11.23
2019-02-19T12:48:54.463Z,11.23
2019-02-19T12:49:48.555Z,11.25
2019-02-19T12:50:48.284Z,11.28
2019-02-19T12:51:48.216Z,11.36
2019-02-19T12:52:48.557Z,11.31
2019-02-19T12:53:48.449Z,11.19
2019-02-19T12:54:48.147Z,11.16
2019-02-19T12:55:48.132Z,11.34
2019-02-19T12:56:48.128Z,11.45
2019-02-19T12:57:48.102Z,11.49
2019-02-19T13:00:48.434Z,11.36
2019-02-19T13:01:48.016Z,11.40
2019-02-19T13:02:47.996Z,11.45
2019-02-19T13:03:48.081Z,11.41
2019-02-19T13:04:48.065Z,11.48
2019-02-19T13:05:47.937Z,11.54
2019-02-19T13:06:48.357Z,11.59
2019-02-19T13:07:47.898Z,11.45
2019-02-19T13:08:47.890Z,11.33
2019-02-19T13:09:47.903Z,11.30
2019-02-19T13:10:47.861Z,11.40
2019-02-19T13:11:47.934Z,11.34
2019-02-19T13:12:49.128Z,11.36
2019-02-19T13:13:47.794Z,11.27
2019-02-19T13:14:47.762Z,11.38
2019-02-19T13:15:47.747Z,11.33
2019-02-19T13:16:47.885Z,11.31
2019-02-19T13:17:47.722Z,11.33
2019-02-19T13:18:48.171Z,11.25
2019-02-19T13:19:48.214Z,11.19
2019-02-19T13:20:47.695Z,11.15
2019-02-19T13:21:47.631Z,11.23
2019-02-19T13:23:47.611Z,11.15
2019-02-19T13:24:47.886Z,11.05
2019-02-19T13:26:47.535Z,10.98
2019-02-19T13:27:47.826Z,11.00
2019-02-19T13:28:48.123Z,11.00
2019-02-19T13:29:48.215Z,10.94
2019-02-19T13:30:47.977Z,10.98
2019-02-19T13:31:48.327Z,10.94
2019-02-19T13:33:47.601Z,11.01
2019-02-19T13:34:47.413Z,11.00
2019-02-19T13:35:47.363Z,11.00
2019-02-19T13:36:47.635Z,11.01
2019-02-19T13:37:47.332Z,11.01
2019-02-19T13:38:47.321Z,11.03
2019-02-19T13:39:47.327Z,11.09
2019-02-19T13:40:47.259Z,11.04
2019-02-19T13:41:47.294Z,11.05
2019-02-19T13:42:47.522Z,11.12
2019-02-19T13:43:47.460Z,11.15
2019-02-19T13:44:47.210Z,11.11
2019-02-19T13:45:47.218Z,11.08
2019-02-19T13:46:47.128Z,11.11
2019-02-19T13:47:47.303Z,10.95
2019-02-19T13:48:47.387Z,10.95